createdAt,value
2023-04-01T00:01:25.637Z,98063.44
2023-04-01T00:03:52.285Z,98053.69
2023-04-01T00:06:19.839Z,98059.94
2023-04-01T00:08:47.496Z,98029.16
2023-04-01T00:11:15.029Z,98031.00
2023-04-01T00:13:42.212Z,98041.84
2023-04-01T00:16:20.335Z,98047.47
2023-04-01T00:18:48.618Z,98050.97
2023-04-01T00:21:16.315Z,97966.44
2023-04-01T00:23:42.881Z,98230.66
2023-04-01T00:26:09.600Z,98256.75
2023-04-01T00:28:37.313Z,98223.56
2023-04-01T00:31:15.751Z,98174.19
2023-04-01T00:33:42.471Z,98161.50
2023-04-01T00:36:14.122Z,98141.34
2023-04-01T00:38:42.792Z,98098.50
2023-04-01T00:41:15.464Z,98133.91
2023-04-01T00:43:43.769Z,98123.31
2023-04-01T00:46:10.518Z,98087.72
2023-04-01T00:48:42.453Z,98130.34
2023-04-01T00:53:49.792Z,98097.84
2023-04-01T00:56:59.098Z,98118.69
2023-04-01T00:59:35.787Z,98124.44
2023-04-01T01:02:08.511Z,98132.72
2023-04-01T01:04:36.624Z,98147.28
2023-04-01T01:07:40.585Z,98148.50
2023-04-01T01:10:20.491Z,98093.19
2023-04-01T01:12:56.462Z,98093.06
2023-04-01T01:15:32.186Z,98145.81
2023-04-01T01:18:04.026Z,98095.41
2023-04-01T01:21:21.129Z,98148.41
2023-04-01T01:24:12.397Z,98174.53
2023-04-01T01:26:49.855Z,98140.84
2023-04-01T01:30:00.897Z,98156.56
2023-04-01T01:32:48.553Z,98153.22
2023-04-01T01:35:54.292Z,98159.31
2023-04-01T01:38:28.483Z,98173.69
2023-04-01T01:40:58.923Z,98172.06
2023-04-01T01:43:31.325Z,98151.69
2023-04-01T01:46:02.697Z,98170.88
2023-04-01T01:48:31.635Z,98163.78
2023-04-01T01:50:58.760Z,98171.69
2023-04-01T01:53:25.396Z,98155.38
2023-04-01T01:55:53.098Z,98142.00
2023-04-01T01:58:30.629Z,98142.22
2023-04-01T02:01:01.687Z,98136.81
2023-04-01T02:03:32.322Z,98143.91
2023-04-01T02:06:01.735Z,98132.50
2023-04-01T02:08:52.705Z,98136.25
2023-04-01T02:11:23.035Z,98127.28
2023-04-01T02:14:02.968Z,98128.72
2023-04-01T02:16:53.734Z,98129.22
2023-04-01T02:19:24.377Z,98120.53
2023-04-01T02:21:56.322Z,98143.44
2023-04-01T02:24:25.959Z,98113.16
2023-04-01T02:26:53.008Z,98127.47
2023-04-01T02:29:22.992Z,98149.09
2023-04-01T02:31:51.192Z,98123.28
2023-04-01T02:34:18.122Z,98130.44
2023-04-01T02:36:45.185Z,98102.13
2023-04-01T02:39:11.873Z,98090.72
2023-04-01T02:41:43.616Z,98120.84
2023-04-01T02:44:12.022Z,98167.47
2023-04-01T02:46:38.894Z,98137.31
2023-04-01T02:49:06.530Z,98172.72
2023-04-01T02:51:34.025Z,98164.88
2023-04-01T02:54:01.162Z,98135.38
2023-04-01T02:56:28.177Z,98125.84
2023-04-01T02:58:56.129Z,98141.84
2023-04-01T03:01:23.521Z,98131.22
2023-04-01T03:03:50.699Z,98119.97
2023-04-01T03:06:18.301Z,98166.69
2023-04-01T03:08:45.894Z,98156.34
2023-04-01T03:11:13.473Z,98111.59
2023-04-01T03:13:40.124Z,98154.63
2023-04-01T03:16:06.931Z,98166.97
2023-04-01T03:18:33.780Z,98196.63
2023-04-01T03:21:14.936Z,98171.06
2023-04-01T03:23:41.697Z,98199.22
2023-04-01T03:26:08.498Z,98232.22
2023-04-01T03:28:35.109Z,98174.28
2023-04-01T03:31:01.817Z,98199.22
2023-04-01T03:33:28.546Z,98194.66
2023-04-01T03:35:55.514Z,98121.03
2023-04-01T03:38:22.126Z,98189.72
2023-04-01T03:40:48.877Z,98182.84
2023-04-01T03:43:15.539Z,98141.75
2023-04-01T03:45:50.461Z,98108.88
2023-04-01T03:48:18.080Z,98140.31
2023-04-01T03:50:45.867Z,98173.88
2023-04-01T03:53:12.443Z,98123.75
2023-04-01T03:55:40.084Z,98185.06
2023-04-01T03:58:07.739Z,98166.19
2023-04-01T04:00:34.893Z,98180.06
2023-04-01T04:03:01.901Z,98201.44
2023-04-01T04:05:28.698Z,98189.34
2023-04-01T04:07:55.755Z,98212.66
2023-04-01T04:10:24.225Z,98149.00
2023-04-01T04:12:51.255Z,98142.19
2023-04-01T04:15:18.213Z,98142.97
2023-04-01T04:17:48.781Z,98184.53
2023-04-01T04:20:15.713Z,98174.84
2023-04-01T04:22:42.322Z,98206.28
2023-04-01T04:25:09.785Z,98173.03
2023-04-01T04:27:36.501Z,98119.53
2023-04-01T04:30:05.030Z,98244.22
2023-04-01T04:32:31.969Z,98202.13
2023-04-01T04:34:58.701Z,98191.03
2023-04-01T04:37:26.943Z,98175.03
2023-04-01T04:39:53.821Z,98238.34
2023-04-01T04:42:20.664Z,98241.06
2023-04-01T04:44:47.361Z,98224.03
2023-04-01T04:47:14.252Z,98236.53
2023-04-01T04:49:41.289Z,98212.41
2023-04-01T04:52:07.928Z,98232.13
2023-04-01T04:54:34.522Z,98249.72
2023-04-01T04:57:01.430Z,98252.59
2023-04-01T04:59:28.062Z,98247.75
2023-04-01T05:01:54.619Z,98265.75
2023-04-01T05:04:21.178Z,98279.19
2023-04-01T05:06:47.748Z,98206.56
2023-04-01T05:09:14.511Z,98263.22
2023-04-01T05:11:41.396Z,98264.94
2023-04-01T05:14:13.497Z,98267.59
2023-04-01T05:16:40.309Z,98219.44
2023-04-01T05:19:06.926Z,98267.19
2023-04-01T05:21:33.522Z,98184.72
2023-04-01T05:24:00.139Z,98108.94
2023-04-01T05:26:26.787Z,98097.66
2023-04-01T05:28:53.401Z,98063.53
2023-04-01T05:31:20.151Z,98021.09
2023-04-01T05:33:46.852Z,98038.75
2023-04-01T05:36:16.383Z,98075.25
2023-04-01T05:38:44.304Z,98096.19
2023-04-01T05:41:11.064Z,98055.94
2023-04-01T05:43:38.849Z,98066.19
2023-04-01T05:46:05.730Z,98091.41
2023-04-01T05:48:34.229Z,98118.28
2023-04-01T05:51:00.974Z,98123.78
2023-04-01T05:53:27.564Z,98033.75
2023-04-01T05:55:54.135Z,98106.19
2023-04-01T05:58:20.902Z,98047.88
2023-04-01T06:00:47.998Z,98096.13
2023-04-01T06:03:14.749Z,98018.56
2023-04-01T06:05:43.629Z,98103.34
2023-04-01T06:08:13.894Z,98115.31
2023-04-01T06:10:54.345Z,98076.25
2023-04-01T06:13:38.857Z,98122.63
2023-04-01T06:16:10.169Z,98074.94
2023-04-01T06:19:01.048Z,98139.19
2023-04-01T06:22:04.486Z,98125.47
2023-04-01T06:24:47.070Z,98135.41
2023-04-01T06:27:19.435Z,98144.75
2023-04-01T06:29:48.898Z,98100.78
2023-04-01T06:32:27.768Z,98121.69
2023-04-01T06:35:12.477Z,98093.66
2023-04-01T06:38:07.998Z,98035.22
2023-04-01T06:40:40.585Z,98090.59
2023-04-01T06:43:37.616Z,98091.63
2023-04-01T06:46:31.009Z,98097.53
2023-04-01T06:49:17.225Z,98093.66
2023-04-01T06:51:46.497Z,98083.91
2023-04-01T06:54:21.925Z,98022.28
2023-04-01T06:56:56.596Z,98015.16
2023-04-01T06:59:29.323Z,98056.72
2023-04-01T07:02:11.291Z,98053.28
2023-04-01T07:04:44.796Z,98062.72
2023-04-01T07:07:43.047Z,98053.38
2023-04-01T07:10:21.447Z,98050.13
2023-04-01T07:12:53.263Z,98046.53
2023-04-01T07:15:34.818Z,97996.66
2023-04-01T07:18:08.248Z,98048.56
2023-04-01T07:20:38.155Z,98002.47
2023-04-01T07:23:11.840Z,98038.81
2023-04-01T07:25:43.081Z,98070.97
2023-04-01T07:28:15.571Z,98016.03
2023-04-01T07:31:03.256Z,98068.81
2023-04-01T07:33:59.801Z,98071.78
2023-04-01T07:36:38.520Z,98030.59
2023-04-01T07:39:26.937Z,98040.28
2023-04-01T07:42:19.865Z,98123.06
2023-04-01T07:45:09.867Z,98100.03
2023-04-01T07:48:14.948Z,98136.78
2023-04-01T07:50:53.198Z,98147.81
2023-04-01T07:53:39.067Z,98183.34
2023-04-01T07:56:25.876Z,98197.94
2023-04-01T07:59:35.206Z,98230.56
2023-04-01T08:02:08.001Z,98254.78
2023-04-01T08:04:50.792Z,98263.31
2023-04-01T08:07:37.449Z,98253.16
2023-04-01T08:10:23.664Z,98245.00
2023-04-01T08:13:12.000Z,98366.59
2023-04-01T08:15:54.413Z,98406.84
2023-04-01T08:18:49.513Z,98355.91
2023-04-01T08:21:23.278Z,98389.69
2023-04-01T08:23:53.268Z,98435.09
2023-04-01T08:26:43.893Z,98463.47
2023-04-01T08:29:18.784Z,98452.69
2023-04-01T08:32:17.578Z,98472.94
2023-04-01T08:34:48.738Z,98484.41
2023-04-01T08:37:23.694Z,98455.44
2023-04-01T08:39:58.326Z,98536.13
2023-04-01T08:42:46.882Z,98571.69
2023-04-01T08:45:25.025Z,98636.31
2023-04-01T08:48:09.832Z,98637.78
2023-04-01T08:50:52.265Z,98627.06
2023-04-01T08:53:41.022Z,98698.59
2023-04-01T08:56:18.369Z,98703.16
2023-04-01T08:59:05.528Z,98690.34
2023-04-01T09:01:59.736Z,98736.09
2023-04-01T09:04:31.962Z,98768.34
2023-04-01T09:07:30.955Z,98803.63
2023-04-01T09:10:22.798Z,98818.03
2023-04-01T09:13:00.066Z,98841.72
2023-04-01T09:15:33.460Z,98894.09
2023-04-01T09:18:14.171Z,98938.63
2023-04-01T09:20:50.912Z,98927.22
2023-04-01T09:23:34.234Z,98979.63
2023-04-01T09:26:19.396Z,99027.38
2023-04-01T09:29:02.094Z,99055.25
2023-04-01T09:31:40.832Z,99062.16
2023-04-01T09:34:16.631Z,99117.00
2023-04-01T09:36:48.014Z,99169.13
2023-04-01T09:39:21.164Z,99193.91
2023-04-01T09:42:21.518Z,99147.34
2023-04-01T09:45:01.026Z,99188.03
2023-04-01T09:47:52.817Z,99229.38
2023-04-01T09:50:34.182Z,99224.97
2023-04-01T09:53:12.623Z,99310.16
2023-04-01T09:56:00.267Z,99313.88
2023-04-01T09:58:50.204Z,99319.69
2023-04-01T10:01:29.148Z,99336.63
2023-04-01T10:04:08.212Z,99336.56
2023-04-01T10:07:08.594Z,99336.03
2023-04-01T10:10:13.023Z,99317.78
2023-04-01T10:12:57.879Z,99319.41
2023-04-01T10:15:43.357Z,99262.97
2023-04-01T10:18:45.543Z,99302.75
2023-04-01T10:21:31.452Z,99355.44
2023-04-01T10:24:10.574Z,99356.28
2023-04-01T10:26:44.735Z,99380.28
2023-04-01T10:29:31.531Z,99427.88
2023-04-01T10:32:24.596Z,99484.50
2023-04-01T10:35:09.326Z,99522.94
2023-04-01T10:38:05.978Z,99535.78
2023-04-01T10:40:38.753Z,99532.13
2023-04-01T10:43:45.961Z,99550.31
2023-04-01T10:46:27.905Z,99557.72
2023-04-01T10:49:08.158Z,99556.81
2023-04-01T10:51:52.994Z,99587.03
2023-04-01T10:54:50.699Z,99615.44
2023-04-01T10:57:29.969Z,99670.03
2023-04-01T11:00:15.685Z,99649.13
2023-04-01T11:03:16.222Z,99673.28
2023-04-01T11:06:17.881Z,99684.69
2023-04-01T11:09:12.160Z,99652.13
2023-04-01T11:12:04.981Z,99669.44
2023-04-01T11:15:03.744Z,99666.63
2023-04-01T11:18:04.479Z,99683.84
2023-04-01T11:20:43.137Z,99682.97
2023-04-01T11:23:28.888Z,99695.13
2023-04-01T11:26:33.555Z,99705.22
2023-04-01T11:29:11.058Z,99625.91
2023-04-01T11:32:08.007Z,99689.44
2023-04-01T11:35:11.694Z,99704.19
2023-04-01T11:37:52.461Z,99704.63
2023-04-01T11:40:32.689Z,99670.31
2023-04-01T11:43:07.951Z,99743.94
2023-04-01T11:46:07.711Z,99746.94
2023-04-01T11:48:41.370Z,99735.22
2023-04-01T11:51:17.194Z,99750.88
2023-04-01T11:53:54.328Z,99745.00
2023-04-01T11:56:38.752Z,99769.63
2023-04-01T11:59:51.719Z,99783.47
2023-04-01T12:02:47.058Z,99780.63
2023-04-01T12:05:24.401Z,99768.44
2023-04-01T12:07:54.150Z,99774.66
2023-04-01T12:10:27.395Z,99716.47
2023-04-01T12:13:00.613Z,99781.19
2023-04-01T12:15:47.605Z,99794.59
2023-04-01T12:18:21.856Z,99784.81
2023-04-01T12:21:12.658Z,99764.81
2023-04-01T12:24:16.872Z,99807.88
2023-04-01T12:27:08.677Z,99827.94
2023-04-01T12:30:22.921Z,99843.66
2023-04-01T12:33:07.805Z,99843.19
2023-04-01T12:36:12.259Z,99846.03
2023-04-01T12:39:20.205Z,99879.56
2023-04-01T12:42:15.675Z,99867.06
2023-04-01T12:44:51.095Z,99857.94
2023-04-01T12:47:31.184Z,99854.91
2023-04-01T12:50:21.875Z,99847.59
2023-04-01T12:53:04.386Z,99862.03
2023-04-01T12:55:45.879Z,99857.75
2023-04-01T12:58:23.854Z,99824.22
2023-04-01T13:01:07.195Z,99885.66
2023-04-01T13:03:46.254Z,99899.09
2023-04-01T13:06:27.539Z,99913.59
2023-04-01T13:09:07.184Z,99898.72
2023-04-01T13:11:45.317Z,99906.59
2023-04-01T13:14:32.152Z,99927.94
2023-04-01T13:17:27.020Z,99942.38
2023-04-01T13:20:08.517Z,99938.00
2023-04-01T13:23:14.013Z,99946.03
2023-04-01T13:26:02.169Z,99965.25
2023-04-01T13:28:46.045Z,99967.75
2023-04-01T13:31:31.998Z,99937.72
2023-04-01T13:34:18.477Z,99990.72
2023-04-01T13:36:51.044Z,100020.16
2023-04-01T13:39:32.837Z,100012.34
2023-04-01T13:42:45.765Z,100018.47
2023-04-01T13:45:18.248Z,100044.75
2023-04-01T13:48:22.641Z,100057.13
2023-04-01T13:51:05.434Z,100065.31
2023-04-01T13:54:16.001Z,100072.13
2023-04-01T13:56:59.559Z,100073.13
2023-04-01T13:59:50.421Z,100100.78
2023-04-01T14:02:38.715Z,100080.75
2023-04-01T14:05:32.247Z,100092.59
2023-04-01T14:08:36.246Z,100084.00
2023-04-01T14:11:20.223Z,100109.16
2023-04-01T14:13:49.824Z,100125.28
2023-04-01T14:16:41.268Z,100116.16
2023-04-01T14:19:34.183Z,100125.66
2023-04-01T14:22:32.170Z,100142.91
2023-04-01T14:25:23.864Z,100094.09
2023-04-01T14:28:15.006Z,100153.91
2023-04-01T14:30:53.063Z,100168.66
2023-04-01T14:33:32.849Z,100150.25
2023-04-01T14:36:11.907Z,100125.16
2023-04-01T14:38:52.821Z,100194.78
2023-04-01T14:41:48.981Z,100191.00
2023-04-01T14:44:43.254Z,100186.53
2023-04-01T14:47:44.835Z,100205.28
2023-04-01T14:50:16.070Z,100206.16
2023-04-01T14:52:55.535Z,100212.91
2023-04-01T14:55:28.465Z,100219.81
2023-04-01T14:58:09.319Z,100218.81
2023-04-01T15:01:00.488Z,100178.66
2023-04-01T15:03:27.312Z,100204.97
2023-04-01T15:06:15.251Z,100196.66
2023-04-01T15:08:56.992Z,100199.63
2023-04-01T15:11:45.381Z,100194.28
2023-04-01T15:14:39.626Z,100203.25
2023-04-01T15:17:35.768Z,100190.31
2023-04-01T15:20:44.166Z,100185.16
2023-04-01T15:23:55.308Z,100125.28
2023-04-01T15:26:59.647Z,100189.28
2023-04-01T15:29:35.206Z,100192.25
2023-04-01T15:32:29.364Z,100211.28
2023-04-01T15:35:14.710Z,100235.31
2023-04-01T15:38:06.014Z,100218.53
2023-04-01T15:40:55.904Z,100216.22
2023-04-01T15:43:54.920Z,100206.22
2023-04-01T15:46:33.218Z,100205.50
2023-04-01T15:49:00.720Z,100231.69
2023-04-01T15:51:54.448Z,100241.78
2023-04-01T15:54:27.329Z,100255.19
2023-04-01T15:57:12.252Z,100244.34
2023-04-01T16:00:16.392Z,100241.09
2023-04-01T16:02:52.203Z,100260.94
2023-04-01T16:05:35.447Z,100256.53
2023-04-01T16:08:23.399Z,100278.13
2023-04-01T16:11:05.067Z,100275.16
2023-04-01T16:13:56.195Z,100285.03
2023-04-01T16:16:37.751Z,100293.47
2023-04-01T16:19:38.187Z,100293.13
2023-04-01T16:22:20.050Z,100256.34
2023-04-01T16:25:02.500Z,100311.97
2023-04-01T16:27:45.609Z,100332.28
2023-04-01T16:30:38.491Z,100338.75
2023-04-01T16:33:27.063Z,100341.44
2023-04-01T16:36:11.469Z,100336.19
2023-04-01T16:39:09.924Z,100321.88
2023-04-01T16:41:47.875Z,100346.50
2023-04-01T16:44:21.764Z,100351.22
2023-04-01T16:46:54.988Z,100346.38
2023-04-01T16:49:31.341Z,100365.25
2023-04-01T16:52:07.159Z,100369.56
2023-04-01T16:54:44.330Z,100373.66
2023-04-01T16:57:10.893Z,100392.16
2023-04-01T16:59:56.369Z,100408.81
2023-04-01T17:02:44.604Z,100397.25
2023-04-01T17:05:16.729Z,100421.06
2023-04-01T17:07:59.627Z,100382.16
2023-04-01T17:10:51.714Z,100435.59
2023-04-01T17:13:37.244Z,100422.97
2023-04-01T17:16:27.830Z,100472.69
2023-04-01T17:19:08.142Z,100441.94
2023-04-01T17:21:53.252Z,100486.47
2023-04-01T17:24:43.991Z,100487.91
2023-04-01T17:27:19.471Z,100516.81
2023-04-01T17:30:04.892Z,100521.97
2023-04-01T17:33:08.612Z,100529.34
2023-04-01T17:35:54.238Z,100518.44
2023-04-01T17:38:42.503Z,100573.97
2023-04-01T17:41:27.484Z,100570.84
2023-04-01T17:44:16.622Z,100571.59
2023-04-01T17:46:46.357Z,100574.47
2023-04-01T17:49:29.953Z,100565.63
2023-04-01T17:52:05.504Z,100582.19
2023-04-01T17:54:46.029Z,100588.72
2023-04-01T17:57:35.445Z,100572.03
2023-04-01T18:00:14.152Z,100607.75
2023-04-01T18:02:43.818Z,100626.16
2023-04-01T18:05:29.180Z,100611.84
2023-04-01T18:08:14.194Z,100604.06
2023-04-01T18:11:13.656Z,100630.81
2023-04-01T18:14:13.000Z,100631.72
2023-04-01T18:17:01.475Z,100667.31
2023-04-01T18:19:57.634Z,100675.94
2023-04-01T18:22:38.723Z,100703.22
2023-04-01T18:25:29.690Z,100704.84
2023-04-01T18:28:28.743Z,100714.63
2023-04-01T18:31:03.651Z,100677.59
2023-04-01T18:33:37.314Z,100706.28
2023-04-01T18:36:19.310Z,100736.97
2023-04-01T18:38:51.639Z,100747.38
2023-04-01T18:41:43.638Z,100714.13
2023-04-01T18:44:38.342Z,100764.09
2023-04-01T18:47:24.785Z,100774.59
2023-04-01T18:50:21.106Z,100782.41
2023-04-01T18:52:51.563Z,100794.94
2023-04-01T18:55:32.801Z,100800.78
2023-04-01T18:58:27.525Z,100810.22
2023-04-01T19:01:08.334Z,100816.06
2023-04-01T19:03:48.392Z,100808.31
2023-04-01T19:06:27.185Z,100776.16
2023-04-01T19:08:54.925Z,100814.63
2023-04-01T19:11:38.533Z,100827.72
2023-04-01T19:14:17.027Z,100844.22
2023-04-01T19:16:55.541Z,100836.19
2023-04-01T19:19:55.975Z,100847.25
2023-04-01T19:22:35.826Z,100850.63
2023-04-01T19:25:28.841Z,100848.69
2023-04-01T19:28:09.280Z,100834.13
2023-04-01T19:30:54.596Z,100881.53
2023-04-01T19:33:45.825Z,100883.34
2023-04-01T19:36:23.823Z,100884.31
2023-04-01T19:38:58.945Z,100891.75
2023-04-01T19:41:42.015Z,100905.13
2023-04-01T19:44:44.289Z,100909.78
2023-04-01T19:47:29.709Z,100914.84
2023-04-01T19:50:17.434Z,100915.03
2023-04-01T19:52:44.351Z,100936.19
2023-04-01T19:55:20.010Z,100953.03
2023-04-01T19:57:52.571Z,100960.34
2023-04-01T20:00:26.082Z,100971.44
2023-04-01T20:03:11.606Z,100988.25
2023-04-01T20:06:03.371Z,100965.91
2023-04-01T20:08:47.175Z,100993.00
2023-04-01T20:11:39.950Z,100832.28
2023-04-01T20:14:15.204Z,101001.59
2023-04-01T20:17:13.057Z,101005.97
2023-04-01T20:19:46.832Z,100999.38
2023-04-01T20:22:31.016Z,101010.28
2023-04-01T20:25:08.296Z,101010.81
2023-04-01T20:27:43.211Z,101029.38
2023-04-01T20:30:31.725Z,101032.03
2023-04-01T20:33:10.567Z,101033.56
2023-04-01T20:36:02.780Z,101037.66
2023-04-01T20:38:58.936Z,101046.75
2023-04-01T20:41:41.294Z,101050.78
2023-04-01T20:44:15.459Z,101047.47
2023-04-01T20:47:15.908Z,101051.53
2023-04-01T20:49:55.747Z,101060.78
2023-04-01T20:52:43.482Z,101036.59
2023-04-01T20:55:25.680Z,101075.69
2023-04-01T20:58:08.038Z,101070.09
2023-04-01T21:00:48.174Z,101095.13
2023-04-01T21:04:10.003Z,101099.19
2023-04-01T21:06:50.011Z,101105.78
2023-04-01T21:09:44.144Z,101119.34
2023-04-01T21:12:16.773Z,101116.22
2023-04-01T21:14:52.327Z,101122.09
2023-04-01T21:17:33.979Z,101064.81
2023-04-01T21:20:15.599Z,101132.22
2023-04-01T21:23:02.578Z,101125.84
2023-04-01T21:25:32.498Z,101145.63
2023-04-01T21:28:20.951Z,101141.69
2023-04-01T21:31:05.971Z,101083.31
2023-04-01T21:34:11.555Z,101144.88
2023-04-01T21:37:00.056Z,101145.53
2023-04-01T21:39:56.543Z,101145.69
2023-04-01T21:42:46.281Z,101150.28
2023-04-01T21:45:22.298Z,101146.28
2023-04-01T21:48:07.606Z,101155.91
2023-04-01T21:51:09.863Z,101154.53
2023-04-01T21:54:19.122Z,101163.97
2023-04-01T21:57:13.388Z,101162.66
2023-04-01T22:00:21.325Z,101140.94
2023-04-01T22:03:16.029Z,101168.28
2023-04-01T22:06:02.337Z,101171.69
2023-04-01T22:08:44.843Z,101183.19
2023-04-01T22:11:50.667Z,101190.09
2023-04-01T22:14:47.322Z,101200.44
2023-04-01T22:17:33.567Z,101194.25
2023-04-01T22:20:18.732Z,101204.97
2023-04-01T22:23:00.848Z,101213.88
2023-04-01T22:25:54.248Z,101221.66
2023-04-01T22:28:44.390Z,101213.59
2023-04-01T22:31:15.579Z,101164.81
2023-04-01T22:33:55.263Z,101230.88
2023-04-01T22:36:34.010Z,101244.25
2023-04-01T22:39:07.077Z,101263.88
2023-04-01T22:42:05.502Z,101253.66
2023-04-01T22:45:01.653Z,101219.25
2023-04-01T22:48:07.435Z,101264.69
2023-04-01T22:51:12.352Z,101260.50
2023-04-01T22:54:01.790Z,101271.59
2023-04-01T22:56:41.735Z,101252.00
2023-04-01T22:59:18.173Z,101287.88
2023-04-01T23:01:52.380Z,101286.19
2023-04-01T23:04:24.884Z,101288.34
2023-04-01T23:06:58.340Z,101290.94
2023-04-01T23:09:28.676Z,101299.75
2023-04-01T23:12:16.395Z,101302.34
2023-04-01T23:14:53.728Z,101297.94
2023-04-01T23:17:59.471Z,101316.63
2023-04-01T23:20:38.373Z,101309.69
2023-04-01T23:23:19.244Z,101325.72
2023-04-01T23:26:22.916Z,101324.81
2023-04-01T23:28:57.463Z,101329.25
2023-04-01T23:31:35.310Z,101325.78
2023-04-01T23:34:04.198Z,101334.94
2023-04-01T23:36:38.100Z,101334.16
2023-04-01T23:39:13.764Z,101305.81
2023-04-01T23:41:40.626Z,101351.97
2023-04-01T23:44:12.127Z,101346.53
2023-04-01T23:46:41.586Z,101319.31
2023-04-01T23:49:15.583Z,101325.06
2023-04-01T23:52:04.004Z,101358.34
2023-04-01T23:54:34.865Z,101359.06
2023-04-01T23:57:11.718Z,101345.63
2023-04-01T23:59:38.628Z,101373.13
